Time;durP1;ratioP1;P1;durP2;ratioP2;P2;SDS_P1;SDS_P2;PMS_P1;PMS_P2;Temp;Humidity;BMP_temperature;BMP_pressure;BME280_temperature;BME280_humidity;BME280_pressure;Samples;Min_cycle;Max_cycle;Signal;HPM_P1;HPM_P2
2023/09/15 00:00:25;;;;;;;15.27;12.27;;;;;;;;;;6315083;28;20059;-65
2023/09/15 00:03:28;;;;;;;15.32;12.25;;;;;;;;;;6305504;28;20132;-66
2023/09/15 00:06:30;;;;;;;17.15;13.10;;;;;;;;;;6298620;28;20037;-65
2023/09/15 00:09:32;;;;;;;15.90;12.93;;;;;;;;;;6288206;28;20091;-65
2023/09/15 00:12:37;;;;;;;20.63;13.23;;;;;;;;;;6297128;28;20838;-65
2023/09/15 00:15:40;;;;;;;20.48;13.52;;;;;;;;;;6307898;28;21119;-66
2023/09/15 00:18:42;;;;;;;18.48;13.38;;;;;;;;;;6301423;28;20056;-66
2023/09/15 00:21:47;;;;;;;16.92;14.23;;;;;;;;;;6307695;28;20449;-66
2023/09/15 00:24:50;;;;;;;17.77;13.60;;;;;;;;;;6307209;28;20039;-67
2023/09/15 00:27:54;;;;;;;17.08;13.73;;;;;;;;;;6300920;28;20075;-66
2023/09/15 00:30:59;;;;;;;16.83;13.57;;;;;;;;;;6300005;28;20063;-66
2023/09/15 00:34:01;;;;;;;18.38;14.07;;;;;;;;;;6294887;28;20052;-66
2023/09/15 00:37:03;;;;;;;16.65;12.65;;;;;;;;;;6299847;28;20065;-66
2023/09/15 00:40:08;;;;;;;18.05;13.50;;;;;;;;;;6313561;28;20653;-66
2023/09/15 00:43:10;;;;;;;20.70;16.25;;;;;;;;;;6295928;28;20487;-67
2023/09/15 00:46:12;;;;;;;14.77;13.20;;;;;;;;;;6292588;28;20047;-67
2023/09/15 00:49:15;;;;;;;18.17;13.88;;;;;;;;;;6282412;28;20126;-66
2023/09/15 00:52:17;;;;;;;19.67;13.48;;;;;;;;;;6295722;28;20063;-64
2023/09/15 00:55:21;;;;;;;19.02;17.23;;;;;;;;;;6300958;28;20415;-65
2023/09/15 00:58:23;;;;;;;16.45;12.32;;;;;;;;;;6306081;28;20036;-65
2023/09/15 01:01:27;;;;;;;16.40;12.55;;;;;;;;;;6289198;28;20052;-65
2023/09/15 01:04:31;;;;;;;17.67;11.90;;;;;;;;;;6285228;28;20121;-66
2023/09/15 01:07:33;;;;;;;19.40;12.00;;;;;;;;;;6298680;28;20044;-65
2023/09/15 01:10:37;;;;;;;15.18;12.32;;;;;;;;;;6293402;28;20040;-65
2023/09/15 01:13:39;;;;;;;17.85;11.98;;;;;;;;;;6308335;28;20075;-65
2023/09/15 01:17:18;;;;;;;17.88;13.20;;;;;;;;;;6285134;28;20102;-66
2023/09/15 01:20:32;;;;;;;15.95;13.00;;;;;;;;;;6294890;28;20131;-65
2023/09/15 01:24:14;;;;;;;23.85;13.85;;;;;;;;;;6304668;28;20058;-66
2023/09/15 01:27:34;;;;;;;16.70;12.98;;;;;;;;;;6265279;28;20048;-64
2023/09/15 01:30:37;;;;;;;18.52;12.20;;;;;;;;;;6295034;28;20063;-66
2023/09/15 01:33:39;;;;;;;15.48;12.20;;;;;;;;;;6299334;28;20054;-66
2023/09/15 01:36:41;;;;;;;20.13;13.00;;;;;;;;;;6285964;28;20051;-65
2023/09/15 01:39:43;;;;;;;19.90;13.98;;;;;;;;;;6301482;28;20051;-66
2023/09/15 01:42:48;;;;;;;16.70;12.63;;;;;;;;;;6298797;28;20052;-65
2023/09/15 01:45:51;;;;;;;17.17;12.10;;;;;;;;;;6305435;28;20043;-66
2023/09/15 01:48:56;;;;;;;18.98;13.15;;;;;;;;;;6299655;28;20055;-66
2023/09/15 01:51:59;;;;;;;19.38;13.38;;;;;;;;;;6300282;28;20052;-66
2023/09/15 01:55:03;;;;;;;16.45;12.15;;;;;;;;;;6294626;28;20055;-65
2023/09/15 01:58:05;;;;;;;17.85;13.25;;;;;;;;;;6289123;28;20048;-66
2023/09/15 02:01:07;;;;;;;16.58;12.05;;;;;;;;;;6285524;28;20052;-65
2023/09/15 02:04:09;;;;;;;16.85;14.90;;;;;;;;;;6307389;28;20161;-66
2023/09/15 02:07:12;;;;;;;17.30;13.52;;;;;;;;;;6280897;28;20053;-66
2023/09/15 02:10:14;;;;;;;16.92;14.52;;;;;;;;;;6301141;28;20445;-66
2023/09/15 02:13:17;;;;;;;17.48;13.85;;;;;;;;;;6300100;28;20060;-66
2023/09/15 02:16:19;;;;;;;16.23;12.88;;;;;;;;;;6303727;28;20048;-66
2023/09/15 02:19:22;;;;;;;18.02;13.82;;;;;;;;;;6275276;28;20043;-66
2023/09/15 02:22:24;;;;;;;19.02;13.65;;;;;;;;;;6311504;28;20044;-66
2023/09/15 02:25:26;;;;;;;16.45;14.02;;;;;;;;;;6293127;28;20040;-66
2023/09/15 02:28:29;;;;;;;17.80;13.80;;;;;;;;;;6303183;28;20053;-66
2023/09/15 02:31:31;;;;;;;16.42;13.38;;;;;;;;;;6303050;28;20048;-66
2023/09/15 02:34:33;;;;;;;16.40;13.65;;;;;;;;;;6298206;28;20109;-66
2023/09/15 02:37:35;;;;;;;17.73;14.13;;;;;;;;;;6302051;28;20040;-65
2023/09/15 02:40:38;;;;;;;18.88;15.32;;;;;;;;;;6284001;28;20120;-65
2023/09/15 02:43:40;;;;;;;19.45;17.20;;;;;;;;;;6293689;28;20426;-65
2023/09/15 02:46:42;;;;;;;16.63;13.68;;;;;;;;;;6304234;28;20056;-65
2023/09/15 02:49:45;;;;;;;19.60;13.13;;;;;;;;;;6284591;28;20522;-66
2023/09/15 02:52:47;;;;;;;16.75;12.48;;;;;;;;;;6283705;28;20070;-65
2023/09/15 02:56:01;;;;;;;18.63;13.18;;;;;;;;;;6303276;28;20051;-65
2023/09/15 02:59:07;;;;;;;19.63;12.68;;;;;;;;;;6281099;28;20532;-66
2023/09/15 03:02:12;;;;;;;18.25;14.73;;;;;;;;;;6305531;28;20063;-66
2023/09/15 03:05:20;;;;;;;19.13;13.43;;;;;;;;;;6284819;28;20471;-65
2023/09/15 03:08:22;;;;;;;19.48;14.10;;;;;;;;;;6285009;28;20047;-66
2023/09/15 03:11:25;;;;;;;22.25;17.25;;;;;;;;;;6283492;28;20513;-66
2023/09/15 03:14:33;;;;;;;20.40;18.27;;;;;;;;;;6289651;28;20797;-66
2023/09/15 03:17:39;;;;;;;19.95;13.45;;;;;;;;;;6298272;28;20717;-66
2023/09/15 03:20:41;;;;;;;20.00;14.10;;;;;;;;;;6293839;28;20542;-67
2023/09/15 03:23:44;;;;;;;21.25;14.32;;;;;;;;;;6283693;28;20058;-65
2023/09/15 03:26:46;;;;;;;19.52;13.93;;;;;;;;;;6294491;28;20056;-65
2023/09/15 03:29:49;;;;;;;22.73;14.55;;;;;;;;;;6275410;28;20043;-66
2023/09/15 03:32:51;;;;;;;19.80;13.88;;;;;;;;;;6303384;28;20060;-65
2023/09/15 03:35:53;;;;;;;20.77;15.57;;;;;;;;;;6298088;28;20072;-65
2023/09/15 03:38:56;;;;;;;19.27;15.63;;;;;;;;;;6281037;28;20109;-65
2023/09/15 03:41:59;;;;;;;22.38;15.98;;;;;;;;;;6278251;28;20044;-65
2023/09/15 03:45:01;;;;;;;22.73;15.93;;;;;;;;;;6284556;28;20131;-66
2023/09/15 03:48:04;;;;;;;22.08;15.40;;;;;;;;;;6305875;28;20151;-66
2023/09/15 03:51:06;;;;;;;23.33;15.15;;;;;;;;;;6277913;28;20048;-65
2023/09/15 03:54:09;;;;;;;23.35;15.50;;;;;;;;;;6285596;28;20040;-65
2023/09/15 03:57:11;;;;;;;19.90;14.80;;;;;;;;;;6288797;28;20045;-65
2023/09/15 04:00:17;;;;;;;20.17;14.98;;;;;;;;;;6296385;28;20102;-65
2023/09/15 04:03:20;;;;;;;23.42;15.15;;;;;;;;;;6293099;28;20048;-65
2023/09/15 04:06:23;;;;;;;24.70;16.35;;;;;;;;;;6299699;28;20109;-64
2023/09/15 04:09:25;;;;;;;21.77;15.48;;;;;;;;;;6278925;28;20040;-65
2023/09/15 04:12:27;;;;;;;18.00;15.13;;;;;;;;;;6303736;28;20105;-65
2023/09/15 04:15:29;;;;;;;20.70;16.02;;;;;;;;;;6291257;28;20046;-65
2023/09/15 04:18:32;;;;;;;28.13;15.00;;;;;;;;;;6297175;28;20052;-65
2023/09/15 04:21:35;;;;;;;20.92;15.38;;;;;;;;;;6283458;28;20135;-64
2023/09/15 04:24:37;;;;;;;21.73;15.00;;;;;;;;;;6296584;28;20073;-66
2023/09/15 04:27:39;;;;;;;20.95;15.57;;;;;;;;;;6279883;28;20044;-68
2023/09/15 04:30:42;;;;;;;21.15;15.15;;;;;;;;;;6287501;28;20044;-66
2023/09/15 04:33:48;;;;;;;19.63;15.55;;;;;;;;;;6277549;28;20052;-66
2023/09/15 04:36:50;;;;;;;20.05;14.85;;;;;;;;;;6286214;28;20820;-66
2023/09/15 04:39:54;;;;;;;19.77;14.43;;;;;;;;;;6288013;28;20590;-66
2023/09/15 04:42:56;;;;;;;22.00;15.18;;;;;;;;;;6311284;28;20074;-66
2023/09/15 04:46:01;;;;;;;19.33;14.60;;;;;;;;;;6304564;28;20511;-66
2023/09/15 04:49:04;;;;;;;17.88;14.30;;;;;;;;;;6290656;28;20178;-64
2023/09/15 04:52:06;;;;;;;18.08;14.90;;;;;;;;;;6286954;28;20138;-65
2023/09/15 04:55:08;;;;;;;19.48;14.00;;;;;;;;;;6284400;28;20150;-65
2023/09/15 04:58:11;;;;;;;18.50;13.88;;;;;;;;;;6303803;28;20442;-65
2023/09/15 05:01:16;;;;;;;18.10;14.95;;;;;;;;;;6285061;28;20044;-66
2023/09/15 05:04:20;;;;;;;18.30;16.35;;;;;;;;;;6280254;28;20455;-66
2023/09/15 05:07:24;;;;;;;18.58;14.35;;;;;;;;;;6280332;28;20223;-65
2023/09/15 05:10:26;;;;;;;19.10;14.70;;;;;;;;;;6287996;28;20094;-65
2023/09/15 05:13:30;;;;;;;17.13;13.77;;;;;;;;;;6284190;28;20076;-66
2023/09/15 05:16:33;;;;;;;20.35;15.07;;;;;;;;;;6287414;28;20044;-66
2023/09/15 05:19:35;;;;;;;19.48;14.23;;;;;;;;;;6287449;28;20039;-66
2023/09/15 05:22:37;;;;;;;20.50;13.38;;;;;;;;;;6306321;28;20048;-67
2023/09/15 05:25:40;;;;;;;18.42;14.38;;;;;;;;;;6281682;28;20123;-66
2023/09/15 05:28:42;;;;;;;17.48;14.00;;;;;;;;;;6287422;28;20056;-66
2023/09/15 05:31:44;;;;;;;22.67;14.77;;;;;;;;;;6305249;28;20094;-67
2023/09/15 05:34:47;;;;;;;16.17;12.98;;;;;;;;;;6286365;28;20036;-66
2023/09/15 05:37:50;;;;;;;19.17;15.10;;;;;;;;;;6288044;28;20044;-66
2023/09/15 05:40:52;;;;;;;18.25;14.23;;;;;;;;;;6285997;28;20040;-66
2023/09/15 05:43:54;;;;;;;16.02;13.35;;;;;;;;;;6309321;28;20169;-66
2023/09/15 05:46:56;;;;;;;18.10;15.80;;;;;;;;;;6304492;28;20138;-66
2023/09/15 05:50:04;;;;;;;16.42;13.52;;;;;;;;;;6301947;28;20466;-66
2023/09/15 05:53:06;;;;;;;18.77;15.38;;;;;;;;;;6300582;28;20048;-66
2023/09/15 05:56:08;;;;;;;22.73;16.02;;;;;;;;;;6302835;28;20049;-66
2023/09/15 05:59:10;;;;;;;18.58;14.90;;;;;;;;;;6282762;28;20041;-65
2023/09/15 06:02:14;;;;;;;21.83;16.02;;;;;;;;;;6306897;28;20040;-66
2023/09/15 06:05:21;;;;;;;19.75;15.43;;;;;;;;;;6301181;28;20056;-65
2023/09/15 06:08:24;;;;;;;19.42;15.88;;;;;;;;;;6302593;28;20053;-65
2023/09/15 06:11:25;;;;;;;24.58;15.60;;;;;;;;;;6302805;28;20812;-65
2023/09/15 06:14:28;;;;;;;21.70;15.73;;;;;;;;;;6300187;28;20048;-65
2023/09/15 06:17:29;;;;;;;20.52;15.88;;;;;;;;;;6282478;28;20052;-64
2023/09/15 06:20:33;;;;;;;19.63;15.38;;;;;;;;;;6303765;28;20055;-64
2023/09/15 06:23:35;;;;;;;17.80;14.35;;;;;;;;;;6285094;28;20056;-64
2023/09/15 06:26:38;;;;;;;18.42;13.85;;;;;;;;;;6303235;28;20047;-64
2023/09/15 06:29:40;;;;;;;19.33;14.68;;;;;;;;;;6301042;28;20044;-64
2023/09/15 06:32:42;;;;;;;21.90;17.13;;;;;;;;;;6294527;28;20646;-64
2023/09/15 06:35:44;;;;;;;19.50;14.43;;;;;;;;;;6302267;28;20043;-64
2023/09/15 06:38:46;;;;;;;22.00;14.93;;;;;;;;;;6298752;28;20040;-64
2023/09/15 06:41:52;;;;;;;21.60;15.70;;;;;;;;;;6297802;28;20108;-64
2023/09/15 06:44:57;;;;;;;19.20;14.65;;;;;;;;;;6290959;28;20040;-64
2023/09/15 06:47:59;;;;;;;19.95;14.68;;;;;;;;;;6301540;28;20047;-64
2023/09/15 06:51:01;;;;;;;18.58;13.57;;;;;;;;;;6299991;28;20051;-66
2023/09/15 06:54:03;;;;;;;20.67;17.50;;;;;;;;;;6297082;28;20492;-65
2023/09/15 06:57:05;;;;;;;17.77;14.57;;;;;;;;;;6283907;28;20437;-65
2023/09/15 07:00:09;;;;;;;17.48;12.63;;;;;;;;;;6298956;28;20513;-65
2023/09/15 07:03:11;;;;;;;16.85;12.48;;;;;;;;;;6304369;28;20597;-66
2023/09/15 07:06:13;;;;;;;17.52;12.25;;;;;;;;;;6301656;28;20181;-65
2023/09/15 07:09:15;;;;;;;19.90;12.98;;;;;;;;;;6305392;28;20070;-66
2023/09/15 07:12:17;;;;;;;21.10;13.05;;;;;;;;;;6301507;28;20036;-67
2023/09/15 07:15:21;;;;;;;16.75;12.30;;;;;;;;;;6299338;28;20047;-68
2023/09/15 07:18:23;;;;;;;17.60;11.07;;;;;;;;;;6307723;28;20032;-66
2023/09/15 07:21:25;;;;;;;15.82;11.27;;;;;;;;;;6297385;28;20096;-66
2023/09/15 07:24:28;;;;;;;14.50;10.02;;;;;;;;;;6300250;28;20059;-67
2023/09/15 07:27:30;;;;;;;15.57;14.05;;;;;;;;;;6288422;28;20508;-66
2023/09/15 07:30:32;;;;;;;17.30;11.35;;;;;;;;;;6295768;28;20063;-67
2023/09/15 07:33:34;;;;;;;18.83;11.07;;;;;;;;;;6304888;28;20440;-66
2023/09/15 07:36:36;;;;;;;17.80;12.77;;;;;;;;;;6294943;28;20105;-66
2023/09/15 07:39:38;;;;;;;14.10;11.68;;;;;;;;;;6299919;28;20097;-66
2023/09/15 07:42:40;;;;;;;13.70;10.13;;;;;;;;;;6291459;28;20082;-66
2023/09/15 07:45:42;;;;;;;13.07;10.20;;;;;;;;;;6305668;28;20076;-66
2023/09/15 07:48:46;;;;;;;14.43;10.35;;;;;;;;;;6306672;28;20062;-66
2023/09/15 07:51:50;;;;;;;17.48;13.18;;;;;;;;;;6303094;28;20558;-67
2023/09/15 07:54:52;;;;;;;13.07;8.68;;;;;;;;;;6308728;28;20120;-67
2023/09/15 07:57:54;;;;;;;12.25;9.18;;;;;;;;;;6297047;28;20508;-67
2023/09/15 08:00:57;;;;;;;15.80;10.30;;;;;;;;;;6303134;28;20055;-67
2023/09/15 08:03:59;;;;;;;12.38;9.82;;;;;;;;;;6307745;28;20052;-67
2023/09/15 08:07:03;;;;;;;14.85;12.40;;;;;;;;;;6280920;28;20626;-67
2023/09/15 08:10:05;;;;;;;14.85;9.80;;;;;;;;;;6298060;28;20049;-66
2023/09/15 08:13:07;;;;;;;16.27;11.05;;;;;;;;;;6310079;28;20051;-67
2023/09/15 08:16:09;;;;;;;15.25;10.30;;;;;;;;;;6304975;28;20047;-67
2023/09/15 08:19:12;;;;;;;12.50;9.23;;;;;;;;;;6306471;28;20045;-68
2023/09/15 08:22:16;;;;;;;16.67;10.20;;;;;;;;;;6302797;28;20747;-66
2023/09/15 08:25:18;;;;;;;14.50;9.15;;;;;;;;;;6304317;28;20059;-66
2023/09/15 08:28:22;;;;;;;11.70;8.30;;;;;;;;;;6289492;28;20048;-67
2023/09/15 08:31:26;;;;;;;14.15;9.35;;;;;;;;;;6300499;28;20040;-66
2023/09/15 08:34:28;;;;;;;;;;;;;;;;;;6303649;28;20073;-66
2023/09/15 08:37:31;;;;;;;15.77;8.60;;;;;;;;;;6295370;28;19928;-65
2023/09/15 08:40:37;;;;;;;13.52;10.73;;;;;;;;;;6303962;28;20107;-66
2023/09/15 08:43:40;;;;;;;13.32;9.40;;;;;;;;;;6306781;28;20048;-66
2023/09/15 08:46:43;;;;;;;13.23;9.25;;;;;;;;;;6306858;28;20047;-67
2023/09/15 08:49:45;;;;;;;15.73;10.13;;;;;;;;;;6279501;28;20044;-68
2023/09/15 08:52:49;;;;;;;16.27;10.65;;;;;;;;;;6310727;28;20055;-66
2023/09/15 08:55:51;;;;;;;14.05;11.73;;;;;;;;;;6304283;28;20833;-68
2023/09/15 08:58:54;;;;;;;16.02;8.75;;;;;;;;;;6290440;28;20043;-67
2023/09/15 09:01:56;;;;;;;14.13;8.85;;;;;;;;;;6307701;28;20051;-67
2023/09/15 09:04:58;;;;;;;12.25;8.38;;;;;;;;;;6291844;28;20048;-67
2023/09/15 09:08:01;;;;;;;12.35;8.38;;;;;;;;;;6285587;28;20052;-68
2023/09/15 09:11:03;;;;;;;13.80;7.82;;;;;;;;;;6306312;28;20184;-67
2023/09/15 09:14:11;;;;;;;12.68;8.57;;;;;;;;;;6282301;28;20050;-69
2023/09/15 09:17:13;;;;;;;11.93;8.63;;;;;;;;;;6304539;28;20557;-68
2023/09/15 09:20:24;;;;;;;11.73;8.13;;;;;;;;;;6301382;28;20075;-68
2023/09/15 09:23:27;;;;;;;9.65;7.30;;;;;;;;;;6305443;28;20051;-68
2023/09/15 09:26:29;;;;;;;11.20;8.02;;;;;;;;;;6295079;28;20048;-68
2023/09/15 09:29:32;;;;;;;12.23;7.93;;;;;;;;;;6308036;28;20397;-68
2023/09/15 09:32:37;;;;;;;11.00;7.82;;;;;;;;;;6306609;28;20082;-68
2023/09/15 09:35:39;;;;;;;14.38;7.68;;;;;;;;;;6298992;28;20052;-67
2023/09/15 09:38:43;;;;;;;10.98;7.35;;;;;;;;;;6304879;28;20158;-66
2023/09/15 09:41:46;;;;;;;9.65;7.75;;;;;;;;;;6300542;28;20135;-66
2023/09/15 09:44:48;;;;;;;11.77;7.35;;;;;;;;;;6290255;28;20162;-66
2023/09/15 09:47:50;;;;;;;10.02;7.30;;;;;;;;;;6305511;28;20114;-66
2023/09/15 09:50:54;;;;;;;11.10;9.35;;;;;;;;;;6291128;28;20924;-67
2023/09/15 09:53:56;;;;;;;11.18;7.22;;;;;;;;;;6291858;28;20036;-67
2023/09/15 09:57:00;;;;;;;10.05;6.68;;;;;;;;;;6300740;28;20048;-68
2023/09/15 10:00:03;;;;;;;10.68;7.28;;;;;;;;;;6305535;28;20068;-67
2023/09/15 10:03:07;;;;;;;11.80;7.63;;;;;;;;;;6301582;28;20052;-67
2023/09/15 10:06:09;;;;;;;8.80;6.80;;;;;;;;;;6303772;28;20185;-67
2023/09/15 10:09:14;;;;;;;9.18;7.25;;;;;;;;;;6304438;28;20044;-67
2023/09/15 10:12:16;;;;;;;11.65;7.10;;;;;;;;;;6299383;28;20045;-67
2023/09/15 10:15:18;;;;;;;12.43;8.13;;;;;;;;;;6298018;28;20068;-67
2023/09/15 10:18:21;;;;;;;10.88;8.02;;;;;;;;;;6278402;28;20048;-67
2023/09/15 10:21:24;;;;;;;11.43;8.02;;;;;;;;;;6304222;28;20058;-67
2023/09/15 10:24:27;;;;;;;10.52;7.00;;;;;;;;;;6272726;28;20051;-66
2023/09/15 10:27:29;;;;;;;11.88;7.22;;;;;;;;;;6310266;28;20039;-66
2023/09/15 10:30:36;;;;;;;10.15;6.70;;;;;;;;;;6276994;28;20046;-67
2023/09/15 10:33:39;;;;;;;8.80;7.25;;;;;;;;;;6307189;28;20139;-67
2023/09/15 10:36:43;;;;;;;10.88;6.13;;;;;;;;;;6308948;28;20063;-67
2023/09/15 10:39:46;;;;;;;9.20;6.22;;;;;;;;;;6293570;28;20036;-66
2023/09/15 10:42:50;;;;;;;15.48;6.40;;;;;;;;;;6284076;28;20044;-66
2023/09/15 10:45:57;;;;;;;8.93;5.78;;;;;;;;;;6296713;28;20059;-66
2023/09/15 10:48:59;;;;;;;11.82;7.22;;;;;;;;;;6304090;28;20120;-66
2023/09/15 10:52:02;;;;;;;7.53;5.32;;;;;;;;;;6287774;28;20051;-66
2023/09/15 10:55:05;;;;;;;10.02;7.18;;;;;;;;;;6301461;28;20716;-66
2023/09/15 10:58:09;;;;;;;9.07;6.40;;;;;;;;;;6296184;28;20137;-67
2023/09/15 11:01:11;;;;;;;9.27;5.70;;;;;;;;;;6309880;28;20087;-66
2023/09/15 11:04:17;;;;;;;8.35;5.68;;;;;;;;;;6310714;28;20912;-66
2023/09/15 11:07:20;;;;;;;8.88;5.45;;;;;;;;;;6299383;28;20051;-67
2023/09/15 11:10:32;;;;;;;10.13;6.47;;;;;;;;;;6284709;28;20032;-66
2023/09/15 11:13:34;;;;;;;9.90;5.57;;;;;;;;;;6305140;28;20052;-67
2023/09/15 11:16:36;;;;;;;9.57;5.50;;;;;;;;;;6303205;28;20068;-66
2023/09/15 11:19:38;;;;;;;8.10;5.90;;;;;;;;;;6310063;28;20190;-66
2023/09/15 11:22:41;;;;;;;9.73;5.50;;;;;;;;;;6299828;28;20080;-67
2023/09/15 11:25:44;;;;;;;7.63;4.97;;;;;;;;;;6301314;28;20071;-67
2023/09/15 11:28:46;;;;;;;11.45;5.53;;;;;;;;;;6305530;28;20083;-67
2023/09/15 11:31:48;;;;;;;9.27;5.40;;;;;;;;;;6302847;28;20044;-67
2023/09/15 11:34:51;;;;;;;10.80;5.40;;;;;;;;;;6282257;28;20044;-68
2023/09/15 11:37:53;;;;;;;9.95;5.18;;;;;;;;;;6305381;28;20127;-68
2023/09/15 11:40:55;;;;;;;5.85;4.32;;;;;;;;;;6282997;28;20135;-67
2023/09/15 11:43:57;;;;;;;8.25;4.72;;;;;;;;;;6306403;28;20181;-65
2023/09/15 11:47:00;;;;;;;7.82;4.60;;;;;;;;;;6285835;28;20052;-65
2023/09/15 11:50:03;;;;;;;9.63;4.63;;;;;;;;;;6309132;28;20082;-67
2023/09/15 11:53:08;;;;;;;6.53;4.63;;;;;;;;;;6310275;28;20048;-67
2023/09/15 11:56:10;;;;;;;7.80;6.03;;;;;;;;;;6304951;28;20682;-68
2023/09/15 11:59:13;;;;;;;9.05;4.47;;;;;;;;;;6310373;28;20157;-65
2023/09/15 12:02:20;;;;;;;7.97;4.30;;;;;;;;;;6303673;28;20189;-67
2023/09/15 12:05:23;;;;;;;7.25;4.40;;;;;;;;;;6291912;28;20144;-65
2023/09/15 12:08:25;;;;;;;6.03;3.78;;;;;;;;;;6291770;28;20127;-66
2023/09/15 12:11:27;;;;;;;11.55;5.05;;;;;;;;;;6309490;28;20127;-67
2023/09/15 12:14:29;;;;;;;7.63;5.03;;;;;;;;;;6300698;28;20047;-66
2023/09/15 12:17:31;;;;;;;9.20;4.03;;;;;;;;;;6301307;28;20048;-65
2023/09/15 12:20:35;;;;;;;8.32;5.13;;;;;;;;;;6301925;28;20107;-65
2023/09/15 12:23:38;;;;;;;15.15;4.72;;;;;;;;;;6300900;28;20120;-66
2023/09/15 12:26:43;;;;;;;10.60;6.47;;;;;;;;;;6306399;28;20047;-66
2023/09/15 12:29:45;;;;;;;8.55;4.72;;;;;;;;;;6284742;28;20044;-66
2023/09/15 12:32:48;;;;;;;9.23;4.88;;;;;;;;;;6293331;28;20146;-67
2023/09/15 12:35:50;;;;;;;8.27;4.95;;;;;;;;;;6311500;28;20173;-66
2023/09/15 12:38:52;;;;;;;6.63;4.70;;;;;;;;;;6293025;28;20158;-66
2023/09/15 12:42:05;;;;;;;10.95;4.88;;;;;;;;;;6287081;28;20044;-66
2023/09/15 12:45:10;;;;;;;9.07;4.25;;;;;;;;;;6309587;28;20040;-66
2023/09/15 12:48:12;;;;;;;7.18;5.32;;;;;;;;;;6302120;28;20055;-67
2023/09/15 12:51:14;;;;;;;9.70;5.93;;;;;;;;;;6309442;28;20073;-67
2023/09/15 12:54:16;;;;;;;9.57;6.55;;;;;;;;;;6301436;28;20048;-67
2023/09/15 12:57:18;;;;;;;14.25;5.60;;;;;;;;;;6299717;28;20047;-66
2023/09/15 13:00:21;;;;;;;10.63;5.82;;;;;;;;;;6307683;28;20040;-67
2023/09/15 13:03:23;;;;;;;10.82;6.57;;;;;;;;;;6308523;28;20052;-67
2023/09/15 13:06:26;;;;;;;9.63;5.57;;;;;;;;;;6306682;28;20055;-67
2023/09/15 13:09:30;;;;;;;8.55;5.82;;;;;;;;;;6310508;28;20052;-67
2023/09/15 13:12:33;;;;;;;10.07;6.13;;;;;;;;;;6313826;28;20044;-67
2023/09/15 13:15:35;;;;;;;10.93;6.30;;;;;;;;;;6288862;28;20053;-66
2023/09/15 13:18:37;;;;;;;11.70;7.07;;;;;;;;;;6308934;28;20073;-66
2023/09/15 13:21:39;;;;;;;8.60;6.50;;;;;;;;;;6310488;28;20059;-67
2023/09/15 13:24:41;;;;;;;10.77;7.50;;;;;;;;;;6304239;28;20048;-66
2023/09/15 13:27:43;;;;;;;11.32;6.60;;;;;;;;;;6303556;28;20141;-67
2023/09/15 13:30:45;;;;;;;8.48;5.72;;;;;;;;;;6299928;28;20044;-66
2023/09/15 13:33:48;;;;;;;9.77;5.63;;;;;;;;;;6307883;28;20047;-67
2023/09/15 13:36:53;;;;;;;11.65;8.52;;;;;;;;;;6297186;28;20535;-65
2023/09/15 13:39:55;;;;;;;7.75;5.75;;;;;;;;;;6304676;28;20067;-67
2023/09/15 13:42:57;;;;;;;10.75;6.65;;;;;;;;;;6287762;28;20121;-67
2023/09/15 13:45:59;;;;;;;10.90;6.60;;;;;;;;;;6305885;28;20086;-66
2023/09/15 13:49:02;;;;;;;12.40;6.82;;;;;;;;;;6301485;28;20191;-66
2023/09/15 13:52:04;;;;;;;10.40;8.50;;;;;;;;;;6304573;28;20439;-66
2023/09/15 13:55:07;;;;;;;8.95;7.15;;;;;;;;;;6295629;28;20770;-66
2023/09/15 13:58:09;;;;;;;8.15;5.78;;;;;;;;;;6300857;28;20048;-67
2023/09/15 14:01:11;;;;;;;11.15;6.25;;;;;;;;;;6303694;28;20047;-67
2023/09/15 14:04:16;;;;;;;10.10;7.10;;;;;;;;;;6283178;28;20129;-67
2023/09/15 14:07:18;;;;;;;8.18;6.00;;;;;;;;;;6298895;28;20063;-67
2023/09/15 14:10:20;;;;;;;7.88;5.70;;;;;;;;;;6289018;28;20044;-66
2023/09/15 14:13:22;;;;;;;10.50;6.60;;;;;;;;;;6304998;28;20496;-66
2023/09/15 14:16:24;;;;;;;9.25;5.75;;;;;;;;;;6311568;28;20052;-68
2023/09/15 14:19:27;;;;;;;8.27;6.47;;;;;;;;;;6308325;28;20085;-66
2023/09/15 14:22:29;;;;;;;12.20;8.02;;;;;;;;;;6308083;28;20423;-67
2023/09/15 14:25:32;;;;;;;9.57;6.35;;;;;;;;;;6301787;28;20048;-66
2023/09/15 14:28:34;;;;;;;8.80;5.60;;;;;;;;;;6310079;28;20521;-65
2023/09/15 14:31:36;;;;;;;9.30;7.07;;;;;;;;;;6289208;28;20067;-66
2023/09/15 14:34:41;;;;;;;12.13;8.43;;;;;;;;;;6283042;28;20447;-66
2023/09/15 14:37:43;;;;;;;12.10;7.25;;;;;;;;;;6302077;28;20044;-66
2023/09/15 14:40:46;;;;;;;9.85;6.45;;;;;;;;;;6302826;28;20040;-67
2023/09/15 14:43:48;;;;;;;11.48;7.63;;;;;;;;;;6295282;28;20127;-66
2023/09/15 14:46:50;;;;;;;10.73;6.88;;;;;;;;;;6299838;28;20067;-66
2023/09/15 14:49:52;;;;;;;7.93;5.95;;;;;;;;;;6308738;28;20047;-67
2023/09/15 14:52:55;;;;;;;11.43;6.07;;;;;;;;;;6302176;28;20137;-67
2023/09/15 14:55:57;;;;;;;13.15;5.90;;;;;;;;;;6296477;28;20044;-66
2023/09/15 14:58:59;;;;;;;14.27;6.38;;;;;;;;;;6308406;28;20044;-66
2023/09/15 15:02:02;;;;;;;9.60;6.53;;;;;;;;;;6299821;28;20047;-66
2023/09/15 15:05:05;;;;;;;11.82;6.88;;;;;;;;;;6301452;28;20093;-66
2023/09/15 15:08:07;;;;;;;8.27;5.45;;;;;;;;;;6304869;28;20058;-66
2023/09/15 15:11:09;;;;;;;8.77;6.45;;;;;;;;;;6305498;28;20052;-66
2023/09/15 15:14:11;;;;;;;10.80;7.20;;;;;;;;;;6288214;28;20052;-66
2023/09/15 15:17:16;;;;;;;8.18;6.53;;;;;;;;;;6295249;28;20048;-66
2023/09/15 15:20:18;;;;;;;;;;;;;;;;;;6306793;28;20138;-66
2023/09/15 15:23:20;;;;;;;9.50;6.93;;;;;;;;;;6292834;28;20069;-66
2023/09/15 15:26:22;;;;;;;11.85;6.95;;;;;;;;;;6301208;28;20098;-66
2023/09/15 15:29:24;;;;;;;11.05;7.40;;;;;;;;;;6303556;28;20133;-66
2023/09/15 15:32:26;;;;;;;13.20;8.40;;;;;;;;;;6296921;28;20121;-66
2023/09/15 15:35:29;;;;;;;12.00;7.70;;;;;;;;;;6306150;28;20051;-66
2023/09/15 15:38:35;;;;;;;11.63;7.70;;;;;;;;;;6304535;28;20165;-65
2023/09/15 15:41:37;;;;;;;15.57;8.15;;;;;;;;;;6297843;28;20048;-66
2023/09/15 15:44:39;;;;;;;13.05;7.88;;;;;;;;;;6297486;28;20633;-66
2023/09/15 15:47:41;;;;;;;11.65;8.40;;;;;;;;;;6292846;28;20049;-66
2023/09/15 15:50:43;;;;;;;11.32;8.90;;;;;;;;;;6303239;28;20319;-66
2023/09/15 15:53:45;;;;;;;10.43;8.05;;;;;;;;;;6284084;28;20048;-66
2023/09/15 15:56:47;;;;;;;12.85;7.82;;;;;;;;;;6289912;28;20051;-66
2023/09/15 15:59:49;;;;;;;12.38;7.95;;;;;;;;;;6302256;28;20055;-66
2023/09/15 16:02:51;;;;;;;14.00;9.82;;;;;;;;;;6266270;28;20916;-66
2023/09/15 16:05:55;;;;;;;11.27;8.38;;;;;;;;;;6307808;28;20182;-66
2023/09/15 16:08:57;;;;;;;14.40;8.02;;;;;;;;;;6299313;28;20047;-66
2023/09/15 16:11:59;;;;;;;11.43;7.82;;;;;;;;;;6298376;28;20056;-66
2023/09/15 16:15:03;;;;;;;11.38;8.27;;;;;;;;;;6282491;28;20050;-66
2023/09/15 16:18:07;;;;;;;11.40;7.30;;;;;;;;;;6302035;28;20040;-66
2023/09/15 16:21:33;;;;;;;8.85;7.13;;;;;;;;;;6300682;28;20032;-66
2023/09/15 16:24:36;;;;;;;10.38;7.20;;;;;;;;;;6302406;28;20133;-66
2023/09/15 16:27:39;;;;;;;10.60;7.45;;;;;;;;;;6308682;28;20059;-66
2023/09/15 16:30:42;;;;;;;10.93;7.50;;;;;;;;;;6305040;28;20040;-66
2023/09/15 16:33:46;;;;;;;12.00;9.73;;;;;;;;;;6303874;28;20521;-66
2023/09/15 16:36:48;;;;;;;12.57;7.70;;;;;;;;;;6305365;28;20044;-66
2023/09/15 16:39:51;;;;;;;10.30;7.60;;;;;;;;;;6311016;28;20064;-66
2023/09/15 16:42:54;;;;;;;13.50;8.70;;;;;;;;;;6307280;28;20432;-66
2023/09/15 16:45:57;;;;;;;11.65;7.90;;;;;;;;;;6302693;28;20157;-66
2023/09/15 16:48:59;;;;;;;13.32;7.63;;;;;;;;;;6307614;28;20044;-66
2023/09/15 16:52:02;;;;;;;12.70;8.38;;;;;;;;;;6300436;28;20067;-66
2023/09/15 16:55:05;;;;;;;10.60;8.05;;;;;;;;;;6299962;28;20427;-66
2023/09/15 16:58:07;;;;;;;12.05;7.40;;;;;;;;;;6309310;28;20043;-66
2023/09/15 17:01:09;;;;;;;11.75;9.45;;;;;;;;;;6303512;28;20032;-66
2023/09/15 17:04:11;;;;;;;16.05;9.50;;;;;;;;;;6298476;28;20044;-66
2023/09/15 17:07:13;;;;;;;14.25;9.38;;;;;;;;;;6300440;28;20605;-66
2023/09/15 17:10:15;;;;;;;10.57;7.63;;;;;;;;;;6304184;28;20093;-66
2023/09/15 17:13:17;;;;;;;9.50;6.70;;;;;;;;;;6301295;28;20075;-66
2023/09/15 17:16:20;;;;;;;10.07;7.30;;;;;;;;;;6305559;28;20056;-66
2023/09/15 17:19:24;;;;;;;11.55;7.03;;;;;;;;;;6301005;28;20061;-66
2023/09/15 17:22:26;;;;;;;13.82;6.72;;;;;;;;;;6298703;28;20059;-66
2023/09/15 17:25:28;;;;;;;10.15;6.38;;;;;;;;;;6302474;28;20261;-66
2023/09/15 17:28:30;;;;;;;12.80;6.05;;;;;;;;;;6304314;28;20104;-66
2023/09/15 17:31:32;;;;;;;13.65;6.30;;;;;;;;;;6300515;28;20044;-66
2023/09/15 17:34:36;;;;;;;12.38;6.63;;;;;;;;;;6302025;28;20174;-65
2023/09/15 17:37:39;;;;;;;10.98;6.15;;;;;;;;;;6295976;28;20652;-66
2023/09/15 17:40:41;;;;;;;16.98;6.05;;;;;;;;;;6301754;28;20040;-65
2023/09/15 17:43:43;;;;;;;10.40;6.65;;;;;;;;;;6282592;28;20055;-65
2023/09/15 17:46:46;;;;;;;12.20;7.10;;;;;;;;;;6305737;28;20059;-66
2023/09/15 17:50:05;;;;;;;8.60;5.72;;;;;;;;;;6297032;28;20048;-66
2023/09/15 17:53:08;;;;;;;12.52;5.75;;;;;;;;;;6298120;28;20075;-66
2023/09/15 17:56:10;;;;;;;13.52;6.38;;;;;;;;;;6308610;28;20518;-66